Time;durP1;ratioP1;P1;durP2;ratioP2;P2;SDS_P1;SDS_P2;PMS_P1;PMS_P2;Temp;Humidity;BMP_temperature;BMP_pressure;BME280_temperature;BME280_humidity;BME280_pressure;Samples;Min_cycle;Max_cycle;Signal;HPM_P1;HPM_P2
2023/01/25 00:01:57;;;;;;;36.73;20.67;;;2.40;99.90;;;;;;5031646;28;20185;-29
2023/01/25 00:04:23;;;;;;;37.13;21.27;;;2.40;99.90;;;;;;5017466;28;20186;-33
2023/01/25 00:06:49;;;;;;;35.30;20.80;;;2.40;99.90;;;;;;5051935;28;20232;-29
2023/01/25 00:09:16;;;;;;;40.67;21.57;;;2.40;99.90;;;;;;5033512;28;20197;-30
2023/01/25 00:11:43;;;;;;;38.53;21.30;;;2.40;99.90;;;;;;5028853;28;20192;-30
2023/01/25 00:14:12;;;;;;;36.90;20.90;;;2.40;99.90;;;;;;5021980;28;20178;-32
2023/01/25 00:16:38;;;;;;;36.83;21.67;;;2.40;99.90;;;;;;5033471;28;20227;-29
2023/01/25 00:19:05;;;;;;;41.20;23.00;;;2.40;99.90;;;;;;5038317;28;20321;-30
2023/01/25 00:21:33;;;;;;;35.97;20.97;;;2.40;99.90;;;;;;5035573;28;20178;-30
2023/01/25 00:23:58;;;;;;;38.27;21.60;;;2.40;99.90;;;;;;5054020;28;20236;-31
2023/01/25 00:26:24;;;;;;;35.23;20.33;;;2.40;99.90;;;;;;5035839;28;20213;-30
2023/01/25 00:28:51;;;;;;;36.57;22.00;;;2.40;99.90;;;;;;5050427;28;20208;-30
2023/01/25 00:31:32;;;;;;;38.87;21.37;;;2.40;99.90;;;;;;5019523;28;20269;-30
2023/01/25 00:34:19;;;;;;;37.20;20.50;;;2.40;99.90;;;;;;5045198;28;20208;-29
2023/01/25 00:36:45;;;;;;;36.83;21.10;;;2.40;99.90;;;;;;5032915;28;20178;-30
2023/01/25 00:39:12;;;;;;;41.00;22.70;;;2.40;99.90;;;;;;5018206;28;20202;-30
2023/01/25 00:41:39;;;;;;;36.77;20.70;;;2.40;99.90;;;;;;5018897;28;20185;-30
2023/01/25 00:44:05;;;;;;;36.67;21.37;;;2.40;99.90;;;;;;5032994;28;20197;-30
2023/01/25 00:46:31;;;;;;;35.63;20.80;;;2.40;99.90;;;;;;5034654;28;20216;-29
2023/01/25 00:48:57;;;;;;;37.10;21.17;;;2.40;99.90;;;;;;5043707;28;20197;-29
2023/01/25 00:51:23;;;;;;;38.30;20.73;;;2.50;99.90;;;;;;5049230;28;20174;-30
2023/01/25 00:53:49;;;;;;;37.73;21.20;;;2.40;99.90;;;;;;5034825;28;20248;-28
2023/01/25 00:56:15;;;;;;;38.07;21.87;;;2.40;99.90;;;;;;5020924;28;20183;-30
2023/01/25 00:58:42;;;;;;;34.63;20.07;;;2.50;99.90;;;;;;5032931;28;20236;-30
2023/01/25 01:01:10;;;;;;;38.40;21.43;;;2.50;99.90;;;;;;5034099;28;20196;-29
2023/01/25 01:03:36;;;;;;;33.53;19.43;;;2.50;99.90;;;;;;5035562;28;20178;-29
2023/01/25 01:06:04;;;;;;;34.30;19.10;;;2.50;99.90;;;;;;5034235;28;20228;-29
2023/01/25 01:08:35;;;;;;;35.43;20.30;;;2.50;99.90;;;;;;5034794;28;20193;-31
2023/01/25 01:11:04;;;;;;;40.47;22.70;;;2.50;99.90;;;;;;5034707;28;20183;-30
2023/01/25 01:13:30;;;;;;;42.37;22.17;;;2.40;99.90;;;;;;5019331;28;20190;-29
2023/01/25 01:15:59;;;;;;;34.93;21.20;;;2.40;99.90;;;;;;5042938;28;20174;-29
2023/01/25 01:18:25;;;;;;;35.60;21.20;;;2.40;99.90;;;;;;5040285;28;20693;-29
2023/01/25 01:20:54;;;;;;;35.93;20.57;;;2.40;99.90;;;;;;5035843;28;20268;-30
2023/01/25 01:23:20;;;;;;;37.20;21.07;;;2.40;99.90;;;;;;5032244;28;20187;-30
2023/01/25 01:25:46;;;;;;;42.60;22.17;;;2.40;99.90;;;;;;5030361;28;20556;-29
2023/01/25 01:28:12;;;;;;;39.77;21.00;;;2.40;99.90;;;;;;5034946;28;20185;-30
2023/01/25 01:30:38;;;;;;;38.30;21.40;;;2.40;99.90;;;;;;5048446;28;20201;-30
2023/01/25 01:33:05;;;;;;;39.67;21.00;;;2.40;99.90;;;;;;5044842;28;20178;-28
2023/01/25 01:35:31;;;;;;;33.73;19.83;;;2.40;99.90;;;;;;5055257;28;20181;-31
2023/01/25 01:37:57;;;;;;;37.03;20.17;;;2.50;99.90;;;;;;4998660;28;20213;-29
2023/01/25 01:40:24;;;;;;;33.33;20.00;;;2.50;99.90;;;;;;5032100;28;20672;-30
2023/01/25 01:43:14;;;;;;;36.77;22.03;;;2.40;99.90;;;;;;5021889;28;20186;-29
2023/01/25 01:45:55;;;;;;;39.30;21.07;;;2.40;99.90;;;;;;5044759;28;20678;-29
2023/01/25 01:48:39;;;;;;;40.17;21.30;;;2.40;99.90;;;;;;5031358;28;20202;-31
2023/01/25 01:51:35;;;;;;;36.27;19.97;;;2.40;99.90;;;;;;5015810;28;20182;-29
2023/01/25 01:54:17;;;;;;;38.60;21.63;;;2.40;99.90;;;;;;5031677;28;20181;-29
2023/01/25 01:56:57;;;;;;;37.90;20.00;;;2.40;99.90;;;;;;5032439;28;20185;-30
2023/01/25 01:59:29;;;;;;;36.83;20.33;;;2.40;99.90;;;;;;5036302;28;20224;-31
2023/01/25 02:01:55;;;;;;;32.53;19.57;;;2.50;99.90;;;;;;5030219;28;20265;-29
2023/01/25 02:04:23;;;;;;;35.73;19.90;;;2.50;99.90;;;;;;5016658;28;20183;-30
2023/01/25 02:07:15;;;;;;;37.03;20.57;;;2.50;99.90;;;;;;5012801;28;20197;-30
2023/01/25 02:09:44;;;;;;;33.13;19.10;;;2.50;99.90;;;;;;5015896;28;20239;-30
2023/01/25 02:12:12;;;;;;;36.73;19.33;;;2.50;99.90;;;;;;5014202;28;20175;-30
2023/01/25 02:14:44;;;;;;;36.53;20.10;;;2.50;99.90;;;;;;5030464;28;20190;-30
2023/01/25 02:17:11;;;;;;;35.63;19.10;;;2.50;99.90;;;;;;5034002;28;20186;-30
2023/01/25 02:19:40;;;;;;;32.93;19.30;;;2.50;99.90;;;;;;5033450;28;20216;-30
2023/01/25 02:22:12;;;;;;;32.87;19.07;;;2.50;99.90;;;;;;5031254;28;20182;-29
2023/01/25 02:24:42;;;;;;;33.27;19.23;;;2.50;99.90;;;;;;5030696;28;20244;-30
2023/01/25 02:27:08;;;;;;;31.97;18.60;;;2.50;99.90;;;;;;5033230;28;20270;-29
2023/01/25 02:29:35;;;;;;;32.07;19.13;;;2.60;99.90;;;;;;5013586;28;20227;-28
2023/01/25 02:32:05;;;;;;;33.53;18.77;;;2.60;99.90;;;;;;5046610;28;20283;-29
2023/01/25 02:34:31;;;;;;;33.07;18.83;;;2.60;99.90;;;;;;5051119;28;20178;-31
2023/01/25 02:36:58;;;;;;;35.47;19.00;;;2.50;99.90;;;;;;5014180;28;20189;-28
2023/01/25 02:39:26;;;;;;;30.07;18.23;;;2.50;99.90;;;;;;5020138;28;20209;-30
2023/01/25 02:41:53;;;;;;;30.43;18.33;;;2.50;99.90;;;;;;5050022;28;20196;-29
2023/01/25 02:44:25;;;;;;;31.47;18.27;;;2.50;99.90;;;;;;5027579;28;20174;-29
2023/01/25 02:46:51;;;;;;;29.03;18.53;;;2.50;99.90;;;;;;5020533;28;20312;-30
2023/01/25 02:49:18;;;;;;;28.97;17.23;;;2.50;99.90;;;;;;5031177;28;20194;-29
2023/01/25 02:51:50;;;;;;;29.33;18.07;;;2.60;99.90;;;;;;5013287;28;20266;-30
2023/01/25 02:54:17;;;;;;;30.77;17.63;;;2.60;99.90;;;;;;5033419;28;20174;-30
2023/01/25 02:56:43;;;;;;;30.33;17.90;;;2.50;99.90;;;;;;5016327;28;20178;-29
2023/01/25 02:59:12;;;;;;;30.47;18.17;;;2.50;99.90;;;;;;5015845;28;20214;-30
2023/01/25 03:01:41;;;;;;;29.40;17.13;;;2.50;99.90;;;;;;5013627;28;20202;-30
2023/01/25 03:04:08;;;;;;;29.53;17.60;;;2.60;99.90;;;;;;5029959;28;20187;-30
2023/01/25 03:06:34;;;;;;;28.20;17.87;;;2.60;99.90;;;;;;5015749;28;20228;-30
2023/01/25 03:09:02;;;;;;;32.43;18.27;;;2.60;99.90;;;;;;5024723;28;20289;-30
2023/01/25 03:11:28;;;;;;;29.07;17.20;;;2.60;99.90;;;;;;5020249;28;20182;-29
2023/01/25 03:13:54;;;;;;;29.70;17.30;;;2.60;99.90;;;;;;5032695;28;20177;-30
2023/01/25 03:16:20;;;;;;;29.17;16.53;;;2.60;99.90;;;;;;5031401;28;20170;-30
2023/01/25 03:18:46;;;;;;;29.33;17.30;;;2.60;99.90;;;;;;5010738;28;20275;-30
2023/01/25 03:21:14;;;;;;;30.10;17.07;;;2.60;99.90;;;;;;5033115;28;20186;-29
2023/01/25 03:23:42;;;;;;;28.40;17.00;;;2.60;99.90;;;;;;5029476;28;20174;-29
2023/01/25 03:26:13;;;;;;;28.03;17.00;;;2.60;99.90;;;;;;5032625;28;20198;-30
2023/01/25 03:28:52;;;;;;;26.60;16.50;;;2.60;99.90;;;;;;5028741;28;20194;-30
2023/01/25 03:31:18;;;;;;;31.07;18.43;;;2.50;99.90;;;;;;5014386;28;20265;-30
2023/01/25 03:33:44;;;;;;;28.83;18.30;;;2.50;99.90;;;;;;5030249;28;20261;-30
2023/01/25 03:36:11;;;;;;;30.03;17.77;;;2.50;99.90;;;;;;5031024;28;20206;-29
2023/01/25 03:38:37;;;;;;;28.30;17.13;;;2.50;99.90;;;;;;5015885;28;20206;-29
2023/01/25 03:41:03;;;;;;;32.00;18.07;;;2.50;99.90;;;;;;4996966;28;20182;-29
2023/01/25 03:43:30;;;;;;;26.13;16.63;;;2.50;99.90;;;;;;5034397;28;20177;-30
2023/01/25 03:45:58;;;;;;;31.00;17.27;;;2.50;99.90;;;;;;5031888;28;20264;-29
2023/01/25 03:48:24;;;;;;;30.27;17.17;;;2.50;99.90;;;;;;5028079;28;20194;-31
2023/01/25 03:50:57;;;;;;;27.03;16.33;;;2.60;99.90;;;;;;5046830;28;20166;-30
2023/01/25 03:53:28;;;;;;;29.40;16.50;;;2.60;99.90;;;;;;5009466;28;20170;-29
2023/01/25 03:56:00;;;;;;;24.80;15.30;;;2.60;99.90;;;;;;5023500;28;20188;-30
2023/01/25 03:58:26;;;;;;;26.30;15.97;;;2.60;99.90;;;;;;5013696;28;20213;-30
2023/01/25 04:00:57;;;;;;;27.73;15.37;;;2.60;99.90;;;;;;5030756;28;20331;-30
2023/01/25 04:03:24;;;;;;;23.60;15.00;;;2.60;99.90;;;;;;5026227;28;20221;-29
2023/01/25 04:05:54;;;;;;;24.97;16.00;;;2.50;99.90;;;;;;5025803;28;20182;-30
2023/01/25 04:08:21;;;;;;;27.77;16.20;;;2.50;99.90;;;;;;5028890;28;20194;-30
2023/01/25 04:10:52;;;;;;;29.00;16.50;;;2.50;99.90;;;;;;5014788;28;20229;-29
2023/01/25 04:13:23;;;;;;;27.97;16.27;;;2.50;99.90;;;;;;5029231;28;20205;-30
2023/01/25 04:15:50;;;;;;;29.87;17.10;;;2.50;99.90;;;;;;5032054;28;20182;-30
2023/01/25 04:18:37;;;;;;;28.80;16.67;;;2.40;99.90;;;;;;5022441;28;20224;-29
2023/01/25 04:21:03;;;;;;;27.97;16.73;;;2.40;99.90;;;;;;5013738;28;20179;-30
2023/01/25 04:23:29;;;;;;;28.47;16.53;;;2.50;99.90;;;;;;5013090;28;20174;-29
2023/01/25 04:25:57;;;;;;;29.93;17.10;;;2.50;99.90;;;;;;4997124;28;20175;-29
2023/01/25 04:28:24;;;;;;;29.80;17.40;;;2.50;99.90;;;;;;5017508;28;20199;-31
2023/01/25 04:30:51;;;;;;;28.53;16.87;;;2.40;99.90;;;;;;5029122;28;20183;-29
2023/01/25 04:33:18;;;;;;;30.10;16.90;;;2.40;99.90;;;;;;5012803;28;20209;-30
2023/01/25 04:35:45;;;;;;;26.33;15.20;;;2.40;99.90;;;;;;5030756;28;20202;-29
2023/01/25 04:38:13;;;;;;;28.60;16.70;;;2.40;99.90;;;;;;5002007;28;20183;-29
2023/01/25 04:40:42;;;;;;;31.37;17.60;;;2.50;99.90;;;;;;5015566;28;20232;-29
2023/01/25 04:43:09;;;;;;;28.50;16.40;;;2.50;99.90;;;;;;5019054;28;20178;-28
2023/01/25 04:45:35;;;;;;;27.47;16.70;;;2.50;99.90;;;;;;5036613;28;20189;-30
2023/01/25 04:48:09;;;;;;;25.77;16.13;;;2.50;99.90;;;;;;5014462;28;20217;-29
2023/01/25 04:50:38;;;;;;;26.90;16.43;;;2.50;99.90;;;;;;5017479;28;20179;-29
2023/01/25 04:53:05;;;;;;;27.93;16.50;;;2.50;99.90;;;;;;5022203;28;20181;-30
2023/01/25 04:55:31;;;;;;;26.63;15.70;;;2.50;99.90;;;;;;5029096;28;20170;-30
2023/01/25 04:57:57;;;;;;;27.57;16.20;;;2.50;99.90;;;;;;5035177;28;20236;-29
2023/01/25 05:00:23;;;;;;;28.00;15.63;;;2.50;99.90;;;;;;5024103;28;20205;-29
2023/01/25 05:02:49;;;;;;;26.30;15.97;;;2.50;99.90;;;;;;5018147;28;20178;-30
2023/01/25 05:05:15;;;;;;;28.40;16.03;;;2.50;99.90;;;;;;5027909;28;20209;-29
2023/01/25 05:10:15;;;;;;;24.27;15.17;;;2.50;99.90;;;;;;4992732;28;20218;-38
2023/01/25 05:12:59;;;;;;;26.93;15.33;;;2.50;99.90;;;;;;4977022;28;20176;-39
2023/01/25 05:15:25;;;;;;;25.10;15.77;;;2.50;99.90;;;;;;4992666;28;20250;-40
2023/01/25 05:17:51;;;;;;;25.87;14.87;;;2.50;99.90;;;;;;4992837;28;20190;-38
2023/01/25 05:20:16;;;;;;;26.33;15.40;;;2.50;99.90;;;;;;4971480;28;20200;-40
2023/01/25 05:22:42;;;;;;;26.33;15.03;;;2.50;99.90;;;;;;4993056;28;20180;-38
2023/01/25 05:26:59;;;;;;;25.03;15.40;;;2.50;99.90;;;;;;4992954;28;20200;-42
2023/01/25 05:27:54;;;;;;;25.77;14.97;;;2.50;99.90;;;;;;4992997;28;20236;-40
2023/01/25 05:30:58;;;;;;;25.30;15.23;;;2.60;99.90;;;;;;4973597;28;20185;-37
2023/01/25 05:33:25;;;;;;;25.27;14.83;;;2.60;99.90;;;;;;4988482;28;20252;-37
2023/01/25 05:35:52;;;;;;;24.83;14.47;;;2.60;99.90;;;;;;4975778;28;20184;-40
2023/01/25 05:38:18;;;;;;;24.53;13.80;;;2.50;99.90;;;;;;4960937;28;20271;-40
2023/01/25 05:40:44;;;;;;;26.63;15.87;;;2.60;99.90;;;;;;4959913;28;20667;-39
2023/01/25 05:43:11;;;;;;;24.43;13.97;;;2.50;99.90;;;;;;4975785;28;20191;-38
2023/01/25 05:45:39;;;;;;;24.90;15.10;;;2.50;99.90;;;;;;4958758;28;20176;-39
2023/01/25 05:48:05;;;;;;;24.80;15.73;;;2.50;99.90;;;;;;4967994;28;20204;-40
2023/01/25 05:50:31;;;;;;;25.17;15.10;;;2.50;99.90;;;;;;4975240;28;20256;-39
2023/01/25 05:53:04;;;;;;;23.13;14.57;;;2.50;99.90;;;;;;4990344;28;20180;-40
2023/01/25 05:55:34;;;;;;;24.53;14.27;;;2.50;99.90;;;;;;4974962;28;20216;-39
2023/01/25 05:58:03;;;;;;;24.23;14.87;;;2.50;99.90;;;;;;4974645;28;20234;-38
2023/01/25 06:00:29;;;;;;;23.97;14.50;;;2.50;99.90;;;;;;4958614;28;20184;-39
2023/01/25 06:03:00;;;;;;;22.30;13.43;;;2.50;99.90;;;;;;4991126;28;20192;-39
2023/01/25 06:05:26;;;;;;;24.30;13.67;;;2.50;99.90;;;;;;4990488;28;20262;-38
2023/01/25 06:07:53;;;;;;;21.33;13.50;;;2.50;99.90;;;;;;4975987;28;20664;-40
2023/01/25 06:10:22;;;;;;;23.40;14.37;;;2.50;99.90;;;;;;4959050;28;20200;-42
2023/01/25 06:12:49;;;;;;;21.43;12.83;;;2.50;99.90;;;;;;4991534;28;20178;-38
2023/01/25 06:15:16;;;;;;;21.30;13.17;;;2.40;99.90;;;;;;4975806;28;20207;-40
2023/01/25 06:17:42;;;;;;;22.67;14.87;;;2.40;99.90;;;;;;4990093;28;20197;-41
2023/01/25 06:20:38;;;;;;;20.73;13.80;;;2.40;99.90;;;;;;4964091;28;20278;-39
2023/01/25 06:23:04;;;;;;;22.87;14.43;;;2.40;99.90;;;;;;4985978;28;20420;-38
2023/01/25 06:25:30;;;;;;;22.80;14.17;;;2.40;99.90;;;;;;4978355;28;20235;-37
2023/01/25 06:27:56;;;;;;;21.90;14.13;;;2.40;99.90;;;;;;4980130;28;20219;-40
2023/01/25 06:30:22;;;;;;;25.27;13.80;;;2.40;99.90;;;;;;4987852;28;20204;-39
2023/01/25 06:32:49;;;;;;;20.57;13.20;;;2.40;99.90;;;;;;4981145;28;20218;-41
2023/01/25 06:35:15;;;;;;;22.97;13.87;;;2.40;99.90;;;;;;4985528;28;20172;-41
2023/01/25 06:37:41;;;;;;;24.77;13.87;;;2.40;99.90;;;;;;4968084;28;20175;-38
2023/01/25 06:40:08;;;;;;;21.30;13.20;;;2.40;99.90;;;;;;4962230;28;20204;-38
2023/01/25 06:42:37;;;;;;;22.30;13.17;;;2.40;99.90;;;;;;4969946;28;20191;-41
2023/01/25 06:45:04;;;;;;;19.50;12.33;;;2.40;99.90;;;;;;4951832;28;20184;-40
2023/01/25 06:47:30;;;;;;;19.97;12.73;;;2.50;99.90;;;;;;4986532;28;20212;-39
2023/01/25 06:49:56;;;;;;;18.70;11.83;;;2.50;99.90;;;;;;4971989;28;20203;-38
2023/01/25 06:52:21;;;;;;;19.50;12.23;;;2.50;99.90;;;;;;4980088;28;20198;-39
2023/01/25 06:54:47;;;;;;;19.03;12.30;;;2.50;99.90;;;;;;4984496;28;20188;-40
2023/01/25 06:57:13;;;;;;;18.87;12.57;;;2.50;99.90;;;;;;4983475;28;20187;-40
2023/01/25 06:59:39;;;;;;;19.43;11.87;;;2.50;99.90;;;;;;4967823;28;20222;-40
2023/01/25 07:02:05;;;;;;;21.10;12.17;;;2.50;99.90;;;;;;4957846;28;20181;-39
2023/01/25 07:04:31;;;;;;;16.87;10.63;;;2.50;99.90;;;;;;4975383;28;20258;-38
2023/01/25 07:06:56;;;;;;;18.87;11.77;;;2.50;99.90;;;;;;4975424;28;20303;-40
2023/01/25 07:09:23;;;;;;;17.30;10.63;;;2.50;99.90;;;;;;4974750;28;20211;-38
2023/01/25 07:11:50;;;;;;;19.07;10.50;;;2.50;99.90;;;;;;4992243;28;20169;-40
2023/01/25 07:14:16;;;;;;;16.37;10.67;;;2.50;99.90;;;;;;4992299;28;20449;-41
2023/01/25 07:16:41;;;;;;;15.33;10.60;;;2.50;99.90;;;;;;4991824;28;20234;-41
2023/01/25 07:19:14;;;;;;;16.87;11.10;;;2.50;99.90;;;;;;4984015;28;20279;-41
2023/01/25 07:21:39;;;;;;;15.93;10.23;;;2.50;99.90;;;;;;4991511;28;20187;-36
2023/01/25 07:24:06;;;;;;;18.80;11.90;;;2.50;99.90;;;;;;4974441;28;20175;-38
2023/01/25 07:26:32;;;;;;;19.60;11.60;;;2.50;99.90;;;;;;4974380;28;20261;-39
2023/01/25 07:28:58;;;;;;;16.70;11.00;;;2.50;99.90;;;;;;4990763;28;20199;-39
2023/01/25 07:31:25;;;;;;;18.07;11.43;;;2.60;99.90;;;;;;4990912;28;20188;-37
2023/01/25 07:33:56;;;;;;;19.13;11.03;;;2.60;99.90;;;;;;4974437;28;20641;-39
2023/01/25 07:36:22;;;;;;;19.00;11.03;;;2.60;99.90;;;;;;4990175;28;20194;-39
2023/01/25 07:38:51;;;;;;;18.23;10.57;;;2.60;99.90;;;;;;4974384;28;20199;-39
2023/01/25 07:41:17;;;;;;;16.30;10.70;;;2.60;99.90;;;;;;4992433;28;20253;-37
2023/01/25 07:43:43;;;;;;;15.97;10.17;;;2.60;99.90;;;;;;4975767;28;20200;-36
2023/01/25 07:46:12;;;;;;;15.60;10.17;;;2.60;99.90;;;;;;4991206;28;20192;-39
2023/01/25 07:48:39;;;;;;;15.70;9.73;;;2.60;99.90;;;;;;4978841;28;20294;-39
2023/01/25 07:54:04;;;;;;;15.63;9.80;;;2.60;99.90;;;;;;4982887;28;20196;-40
2023/01/25 07:56:36;;;;;;;13.50;8.80;;;2.60;99.90;;;;;;4991652;28;20239;-39
2023/01/25 07:59:03;;;;;;;13.73;9.20;;;2.60;99.90;;;;;;4990360;28;20208;-39
2023/01/25 08:01:33;;;;;;;11.97;8.43;;;2.60;99.90;;;;;;4974659;28;20184;-39
2023/01/25 08:04:00;;;;;;;13.33;8.53;;;2.70;99.90;;;;;;4991544;28;20207;-41
2023/01/25 08:06:34;;;;;;;14.23;8.93;;;2.70;99.90;;;;;;4973925;28;20216;-40
2023/01/25 08:09:01;;;;;;;13.27;8.73;;;2.60;99.90;;;;;;4973910;28;20206;-41
2023/01/25 08:11:30;;;;;;;14.80;9.30;;;2.60;99.90;;;;;;4991159;28;20267;-40
2023/01/25 08:13:57;;;;;;;15.10;9.27;;;2.70;99.90;;;;;;4972018;28;20176;-37
2023/01/25 08:16:25;;;;;;;15.27;9.57;;;2.70;99.90;;;;;;4971442;28;20207;-39
2023/01/25 08:18:56;;;;;;;14.47;9.93;;;2.70;99.90;;;;;;4986285;28;20200;-41
2023/01/25 08:21:28;;;;;;;15.30;9.57;;;2.70;99.90;;;;;;4987481;28;20183;-40
2023/01/25 08:23:56;;;;;;;15.27;9.60;;;2.70;99.90;;;;;;4973447;28;20656;-40
2023/01/25 08:26:22;;;;;;;14.47;9.23;;;2.70;99.90;;;;;;4991112;28;20655;-41
2023/01/25 08:28:48;;;;;;;16.43;10.17;;;2.80;99.90;;;;;;4977168;28;20208;-39
2023/01/25 08:31:17;;;;;;;14.70;9.23;;;2.70;99.90;;;;;;4977680;28;20176;-41
2023/01/25 08:33:45;;;;;;;16.17;9.47;;;2.80;99.90;;;;;;4993434;28;20183;-39
2023/01/25 08:36:12;;;;;;;14.47;9.17;;;2.80;99.90;;;;;;4976029;28;20194;-36
2023/01/25 08:38:38;;;;;;;15.43;9.37;;;2.80;99.90;;;;;;4977375;28;20219;-41
2023/01/25 08:41:10;;;;;;;15.20;9.60;;;2.80;99.90;;;;;;4994678;28;20262;-41
2023/01/25 08:43:37;;;;;;;15.83;9.47;;;2.80;99.90;;;;;;4977538;28;20237;-39
2023/01/25 08:46:03;;;;;;;15.70;10.17;;;2.80;99.90;;;;;;4994711;28;20176;-41
2023/01/25 08:48:29;;;;;;;14.63;10.27;;;2.80;99.90;;;;;;4969222;28;20212;-40
2023/01/25 08:50:55;;;;;;;11.97;8.50;;;2.80;99.90;;;;;;4976813;28;20188;-41
2023/01/25 08:53:21;;;;;;;13.87;8.90;;;2.70;99.90;;;;;;4977329;28;20798;-40
2023/01/25 08:55:47;;;;;;;14.13;9.10;;;2.80;99.90;;;;;;4994285;28;20204;-41
2023/01/25 08:58:15;;;;;;;14.30;9.40;;;2.80;99.90;;;;;;4994801;28;20226;-37
2023/01/25 09:00:42;;;;;;;12.33;8.67;;;2.80;99.90;;;;;;4991763;28;20215;-37
2023/01/25 09:03:11;;;;;;;14.17;9.37;;;2.80;99.90;;;;;;4971705;28;20176;-38
2023/01/25 09:05:38;;;;;;;15.87;9.10;;;2.90;99.90;;;;;;4968396;28;20204;-38
2023/01/25 09:08:06;;;;;;;15.97;9.63;;;2.90;99.90;;;;;;4972822;28;20227;-38
2023/01/25 09:10:35;;;;;;;12.90;8.77;;;2.90;99.90;;;;;;4985195;28;20238;-37
2023/01/25 09:13:02;;;;;;;15.00;9.57;;;2.90;99.90;;;;;;4993017;28;20541;-40
2023/01/25 09:15:27;;;;;;;14.07;9.30;;;2.90;99.90;;;;;;4975442;28;20188;-41
2023/01/25 09:17:54;;;;;;;15.73;10.47;;;3.00;99.90;;;;;;4994097;28;20206;-38
2023/01/25 09:20:21;;;;;;;15.93;10.37;;;3.00;99.90;;;;;;4985384;28;20232;-39
2023/01/25 09:22:47;;;;;;;14.63;9.50;;;3.00;99.90;;;;;;4976720;28;20180;-39
2023/01/25 09:25:13;;;;;;;16.77;10.97;;;3.00;99.90;;;;;;4976931;28;20231;-39
2023/01/25 09:27:39;;;;;;;14.60;9.90;;;3.00;99.90;;;;;;4994221;28;20258;-39
2023/01/25 09:30:07;;;;;;;16.13;10.37;;;3.00;99.90;;;;;;4992459;28;20200;-37
2023/01/25 09:32:34;;;;;;;16.13;10.00;;;3.00;99.90;;;;;;4960727;28;20210;-39
2023/01/25 09:34:59;;;;;;;16.67;11.53;;;3.00;99.90;;;;;;4993997;28;20203;-41
2023/01/25 09:37:25;;;;;;;16.50;11.07;;;2.90;99.90;;;;;;4960391;28;20194;-37
2023/01/25 09:39:51;;;;;;;17.07;10.50;;;2.90;99.90;;;;;;4975528;28;20755;-39
2023/01/25 09:43:01;;;;;;;15.83;10.50;;;2.90;99.90;;;;;;4976303;28;20176;-40
2023/01/25 09:45:31;;;;;;;17.47;10.53;;;2.80;99.90;;;;;;4975935;28;20275;-39
2023/01/25 09:48:31;;;;;;;16.67;10.30;;;2.80;99.90;;;;;;4976060;28;20242;-38
2023/01/25 09:51:05;;;;;;;16.33;10.30;;;2.80;99.90;;;;;;4977997;28;20180;-38
2023/01/25 09:53:38;;;;;;;18.53;10.93;;;2.90;99.90;;;;;;4993434;28;20256;-40
2023/01/25 09:56:12;;;;;;;17.20;11.07;;;2.90;99.90;;;;;;4976012;28;20269;-41
2023/01/25 09:58:47;;;;;;;21.37;12.23;;;3.00;99.90;;;;;;4993566;28;20278;-42
2023/01/25 10:01:33;;;;;;;39.00;16.83;;;3.00;99.90;;;;;;4976340;28;20230;-38
2023/01/25 10:04:21;;;;;;;17.53;10.37;;;3.00;99.90;;;;;;4977715;28;20184;-41
2023/01/25 10:06:52;;;;;;;16.13;10.33;;;3.00;99.90;;;;;;4991258;28;20192;-38
2023/01/25 10:09:33;;;;;;;19.37;9.90;;;3.10;99.90;;;;;;4975411;28;20216;-41
2023/01/25 10:12:06;;;;;;;14.23;9.27;;;3.10;99.90;;;;;;4993491;28;20258;-39
2023/01/25 10:14:34;;;;;;;14.03;9.30;;;3.10;99.90;;;;;;4975227;28;20187;-39
2023/01/25 10:17:26;;;;;;;15.20;10.03;;;3.10;99.90;;;;;;4974414;28;20196;-36
2023/01/25 10:20:03;;;;;;;14.87;9.67;;;3.10;99.90;;;;;;4970021;28;20205;-41
2023/01/25 10:22:49;;;;;;;15.67;10.50;;;3.20;99.90;;;;;;4992255;28;20267;-38
2023/01/25 10:25:33;;;;;;;15.33;9.80;;;3.10;99.90;;;;;;4959463;28;20195;-41
2023/01/25 10:28:14;;;;;;;17.20;10.63;;;3.00;99.90;;;;;;4975667;28;20211;-41
2023/01/25 10:30:52;;;;;;;16.43;9.77;;;2.90;99.90;;;;;;4991702;28;20183;-41
2023/01/25 10:33:19;;;;;;;17.37;11.27;;;2.90;99.90;;;;;;4975817;28;20175;-37
2023/01/25 10:35:48;;;;;;;17.07;11.40;;;3.00;99.90;;;;;;4975335;28;20187;-40
2023/01/25 10:38:32;;;;;;;17.17;11.30;;;3.00;99.90;;;;;;4992970;28;20207;-39
2023/01/25 10:41:06;;;;;;;16.07;10.27;;;3.00;99.90;;;;;;4990802;28;20195;-36
2023/01/25 10:43:32;;;;;;;19.83;11.07;;;3.00;99.90;;;;;;4975192;28;20187;-38
2023/01/25 10:45:57;;;;;;;15.90;10.73;;;2.90;99.90;;;;;;4990657;28;20187;-39
2023/01/25 10:48:32;;;;;;;17.17;11.17;;;3.00;99.90;;;;;;4966694;28;20223;-38
2023/01/25 10:50:58;;;;;;;19.83;12.40;;;2.80;99.90;;;;;;4987679;28;20188;-38
2023/01/25 10:53:34;;;;;;;17.87;11.70;;;2.80;99.90;;;;;;4958154;28;20191;-39
2023/01/25 10:56:20;;;;;;;18.00;11.10;;;2.80;99.90;;;;;;4992165;28;20251;-38
2023/01/25 10:58:49;;;;;;;20.10;12.73;;;2.80;99.90;;;;;;4973354;28;20199;-43
2023/01/25 11:01:30;;;;;;;21.33;12.67;;;2.80;99.90;;;;;;4975111;28;20187;-38
2023/01/25 11:03:58;;;;;;;20.33;12.87;;;2.80;99.90;;;;;;4991934;28;20262;-41
2023/01/25 11:06:49;;;;;;;18.53;11.87;;;2.80;99.90;;;;;;4975153;28;20270;-39
2023/01/25 11:09:20;;;;;;;19.80;12.10;;;2.80;99.90;;;;;;4974452;28;20577;-39
2023/01/25 11:11:58;;;;;;;18.20;10.87;;;2.80;99.90;;;;;;4974652;28;20267;-38
2023/01/25 11:14:26;;;;;;;18.17;12.00;;;2.80;99.90;;;;;;4975265;28;20208;-39
2023/01/25 11:16:54;;;;;;;18.00;11.30;;;2.80;99.90;;;;;;4991275;28;20239;-39
2023/01/25 11:19:31;;;;;;;17.67;11.17;;;2.90;99.90;;;;;;4987124;28;20223;-38
2023/01/25 11:21:58;;;;;;;18.97;11.77;;;2.90;99.90;;;;;;4995240;23;20216;-87
2023/01/25 11:24:29;;;;;;;19.03;11.13;;;2.90;99.90;;;;;;4991731;28;20246;-86
2023/01/25 11:27:19;;;;;;;17.60;11.17;;;2.90;99.90;;;;;;4975571;28;20512;-87
2023/01/25 11:30:05;;;;;;;18.00;11.90;;;2.90;99.90;;;;;;4975621;28;20230;-87
2023/01/25 11:32:32;;;;;;;16.90;11.13;;;2.90;99.90;;;;;;4975598;28;20179;-87
2023/01/25 11:34:58;;;;;;;17.27;10.57;;;2.90;99.90;;;;;;4975619;28;20180;-87
2023/01/25 11:37:27;;;;;;;19.63;11.80;;;3.00;99.90;;;;;;4992821;28;20255;-87
2023/01/25 11:40:11;;;;;;;19.83;11.87;;;3.00;99.90;;;;;;4991649;28;20183;-87
2023/01/25 11:43:15;;;;;;;19.17;12.53;;;3.00;99.90;;;;;;4975755;28;20172;-87
2023/01/25 11:46:00;;;;;;;19.50;11.70;;;3.00;99.90;;;;;;4947004;28;20264;-87
2023/01/25 11:48:52;;;;;;;17.77;11.53;;;2.90;99.90;;;;;;4975534;28;20269;-87
2023/01/25 11:51:28;;;;;;;20.17;12.80;;;2.90;99.90;;;;;;4975427;28;20167;-87
2023/01/25 11:53:56;;;;;;;20.23;13.17;;;2.80;99.90;;;;;;4975407;28;20659;-87
2023/01/25 11:56:50;;;;;;;20.93;12.60;;;2.80;99.90;;;;;;4991514;28;20187;-87
2023/01/25 11:59:16;;;;;;;20.30;12.03;;;2.80;99.90;;;;;;4963531;28;20187;-86
2023/01/25 12:02:08;;;;;;;22.77;13.80;;;2.70;99.90;;;;;;4993032;28;20184;-87
2023/01/25 12:05:06;;;;;;;22.40;13.17;;;2.60;99.90;;;;;;4963479;28;20191;-87
2023/01/25 12:07:54;;;;;;;23.20;13.43;;;2.60;99.90;;;;;;4995560;28;20240;-87
2023/01/25 12:10:28;;;;;;;24.03;13.93;;;2.50;99.90;;;;;;4979506;28;20182;-87
2023/01/25 12:12:57;;;;;;;22.63;13.30;;;2.50;99.90;;;;;;4975874;28;20295;-87
2023/01/25 12:15:42;;;;;;;22.93;13.03;;;2.50;99.90;;;;;;4959881;28;20264;-90
2023/01/25 12:18:42;;;;;;;22.83;12.87;;;2.50;99.90;;;;;;4988892;23;20345;-37
2023/01/25 12:21:41;;;;;;;25.30;13.90;;;2.60;99.90;;;;;;4993412;28;20208;-37
2023/01/25 12:24:38;;;;;;;26.80;14.43;;;2.50;99.90;;;;;;4976807;28;20180;-37
2023/01/25 12:27:16;;;;;;;22.07;12.47;;;2.50;99.90;;;;;;4994547;28;20220;-39
2023/01/25 12:29:54;;;;;;;23.67;13.20;;;2.50;99.90;;;;;;5229890;22;20177;31
2023/01/25 12:32:25;;;;;;;22.87;12.43;;;2.50;99.90;;;;;;4993445;28;20227;-31
2023/01/25 12:35:17;;;;;;;22.00;12.50;;;2.50;99.90;;;;;;4961114;28;20179;-32
2023/01/25 12:37:45;;;;;;;24.70;12.90;;;2.50;99.90;;;;;;4977845;28;20281;-31
2023/01/25 12:40:19;;;;;;;22.80;12.47;;;2.50;99.90;;;;;;4977460;28;20211;-31
2023/01/25 12:42:48;;;;;;;24.03;12.43;;;2.60;99.90;;;;;;4995574;28;20166;-31
2023/01/25 12:45:19;;;;;;;19.77;12.40;;;2.60;99.90;;;;;;4961440;28;20180;-30
2023/01/25 12:48:00;;;;;;;23.77;12.87;;;2.60;99.90;;;;;;4995158;28;20302;-33
2023/01/25 12:50:51;;;;;;;22.37;12.10;;;2.60;99.90;;;;;;4969154;28;20291;-33
2023/01/25 12:53:24;;;;;;;23.33;12.80;;;2.70;99.90;;;;;;4975023;28;20275;-32
2023/01/25 12:55:51;;;;;;;20.10;12.37;;;2.70;99.90;;;;;;4994119;28;20164;-33
2023/01/25 12:58:49;;;;;;;20.80;12.40;;;2.80;99.90;;;;;;4995569;28;20191;-33
2023/01/25 13:01:51;;;;;;;22.37;12.53;;;2.80;99.90;;;;;;4976744;28;20238;-32
2023/01/25 13:04:29;;;;;;;24.37;11.77;;;2.80;99.90;;;;;;4983728;28;20172;-32